sensor_id;sensor_type;location;lat;lon;timestamp;temperature;humidity
26703;DHT22;14316;51.074;3.704;2023-10-08T00:00:48;15.00;99.90
26703;DHT22;14316;51.074;3.704;2023-10-08T00:03:21;15.00;99.90
26703;DHT22;14316;51.074;3.704;2023-10-08T00:05:49;15.00;99.90
26703;DHT22;14316;51.074;3.704;2023-10-08T00:08:15;15.10;99.90
26703;DHT22;14316;51.074;3.704;2023-10-08T00:10:43;15.10;99.90
26703;DHT22;14316;51.074;3.704;2023-10-08T00:13:11;15.10;99.90
26703;DHT22;14316;51.074;3.704;2023-10-08T00:15:42;15.00;99.90
26703;DHT22;14316;51.074;3.704;2023-10-08T00:18:21;15.00;99.90
26703;DHT22;14316;51.074;3.704;2023-10-08T00:20:48;15.00;99.90
26703;DHT22;14316;51.074;3.704;2023-10-08T00:23:34;15.00;99.90
26703;DHT22;14316;51.074;3.704;2023-10-08T00:26:01;15.00;99.90
26703;DHT22;14316;51.074;3.704;2023-10-08T00:28:30;15.00;99.90
26703;DHT22;14316;51.074;3.704;2023-10-08T00:30:57;14.90;99.90
26703;DHT22;14316;51.074;3.704;2023-10-08T00:33:23;14.90;99.90
26703;DHT22;14316;51.074;3.704;2023-10-08T00:35:51;14.90;99.90
26703;DHT22;14316;51.074;3.704;2023-10-08T00:38:16;14.90;99.90
26703;DHT22;14316;51.074;3.704;2023-10-08T00:40:46;14.90;99.90
26703;DHT22;14316;51.074;3.704;2023-10-08T00:43:35;14.80;99.90
26703;DHT22;14316;51.074;3.704;2023-10-08T00:46:06;14.80;99.90
26703;DHT22;14316;51.074;3.704;2023-10-08T00:48:42;14.70;99.90
26703;DHT22;14316;51.074;3.704;2023-10-08T00:51:10;14.60;99.90
26703;DHT22;14316;51.074;3.704;2023-10-08T00:54:03;14.60;99.90
26703;DHT22;14316;51.074;3.704;2023-10-08T00:56:34;14.60;99.90
26703;DHT22;14316;51.074;3.704;2023-10-08T00:59:13;14.60;99.90
26703;DHT22;14316;51.074;3.704;2023-10-08T01:01:45;14.50;99.90
26703;DHT22;14316;51.074;3.704;2023-10-08T01:04:25;14.50;99.90
26703;DHT22;14316;51.074;3.704;2023-10-08T01:07:00;14.50;99.90
26703;DHT22;14316;51.074;3.704;2023-10-08T01:09:39;14.50;99.90
26703;DHT22;14316;51.074;3.704;2023-10-08T01:12:09;14.50;99.90
26703;DHT22;14316;51.074;3.704;2023-10-08T01:14:38;14.50;99.90
26703;DHT22;14316;51.074;3.704;2023-10-08T01:17:11;14.50;99.90
26703;DHT22;14316;51.074;3.704;2023-10-08T01:19:45;14.50;99.90
26703;DHT22;14316;51.074;3.704;2023-10-08T01:22:16;14.50;99.90
26703;DHT22;14316;51.074;3.704;2023-10-08T01:24:48;14.40;99.90
26703;DHT22;14316;51.074;3.704;2023-10-08T01:27:18;14.40;99.90
26703;DHT22;14316;51.074;3.704;2023-10-08T01:29:53;14.40;99.90
26703;DHT22;14316;51.074;3.704;2023-10-08T01:32:22;14.40;99.90
26703;DHT22;14316;51.074;3.704;2023-10-08T01:34:49;14.40;99.90
26703;DHT22;14316;51.074;3.704;2023-10-08T01:37:16;14.40;99.90
26703;DHT22;14316;51.074;3.704;2023-10-08T01:39:46;14.40;99.90
26703;DHT22;14316;51.074;3.704;2023-10-08T01:42:14;14.40;99.90
26703;DHT22;14316;51.074;3.704;2023-10-08T01:44:50;14.40;99.90
26703;DHT22;14316;51.074;3.704;2023-10-08T01:47:21;14.40;99.90
26703;DHT22;14316;51.074;3.704;2023-10-08T01:49:51;14.40;99.90
26703;DHT22;14316;51.074;3.704;2023-10-08T01:52:23;14.40;99.90
26703;DHT22;14316;51.074;3.704;2023-10-08T01:54:50;14.40;99.90
26703;DHT22;14316;51.074;3.704;2023-10-08T01:57:19;14.40;99.90
26703;DHT22;14316;51.074;3.704;2023-10-08T01:59:45;14.40;99.90
26703;DHT22;14316;51.074;3.704;2023-10-08T02:02:11;14.40;99.90
26703;DHT22;14316;51.074;3.704;2023-10-08T02:04:43;14.40;99.90
26703;DHT22;14316;51.074;3.704;2023-10-08T02:07:09;14.40;99.90
26703;DHT22;14316;51.074;3.704;2023-10-08T02:09:41;14.40;99.90
26703;DHT22;14316;51.074;3.704;2023-10-08T02:12:07;14.40;99.90
26703;DHT22;14316;51.074;3.704;2023-10-08T02:14:33;14.40;99.90
26703;DHT22;14316;51.074;3.704;2023-10-08T02:17:01;14.30;99.90
26703;DHT22;14316;51.074;3.704;2023-10-08T02:19:32;14.30;99.90
26703;DHT22;14316;51.074;3.704;2023-10-08T02:21:58;14.30;99.90
26703;DHT22;14316;51.074;3.704;2023-10-08T02:24:25;14.30;99.90
26703;DHT22;14316;51.074;3.704;2023-10-08T02:26:52;14.30;99.90
26703;DHT22;14316;51.074;3.704;2023-10-08T02:29:19;14.30;99.90
26703;DHT22;14316;51.074;3.704;2023-10-08T02:31:45;14.40;99.90
26703;DHT22;14316;51.074;3.704;2023-10-08T02:34:11;14.30;99.90
26703;DHT22;14316;51.074;3.704;2023-10-08T02:36:39;14.40;99.90
26703;DHT22;14316;51.074;3.704;2023-10-08T02:39:08;14.30;99.90
26703;DHT22;14316;51.074;3.704;2023-10-08T02:41:48;14.40;99.90
26703;DHT22;14316;51.074;3.704;2023-10-08T02:44:18;14.40;99.90
26703;DHT22;14316;51.074;3.704;2023-10-08T02:46:48;14.40;99.90
26703;DHT22;14316;51.074;3.704;2023-10-08T02:49:15;14.40;99.90
26703;DHT22;14316;51.074;3.704;2023-10-08T02:51:53;14.30;99.90
26703;DHT22;14316;51.074;3.704;2023-10-08T02:54:21;14.30;99.90
26703;DHT22;14316;51.074;3.704;2023-10-08T02:56:53;14.30;99.90
26703;DHT22;14316;51.074;3.704;2023-10-08T02:59:28;14.40;99.90
26703;DHT22;14316;51.074;3.704;2023-10-08T03:01:54;14.30;99.90
26703;DHT22;14316;51.074;3.704;2023-10-08T03:04:22;14.30;99.90
26703;DHT22;14316;51.074;3.704;2023-10-08T03:06:49;14.30;99.90
26703;DHT22;14316;51.074;3.704;2023-10-08T03:09:22;14.30;99.90
26703;DHT22;14316;51.074;3.704;2023-10-08T03:11:56;14.30;99.90
26703;DHT22;14316;51.074;3.704;2023-10-08T03:14:24;14.30;99.90
26703;DHT22;14316;51.074;3.704;2023-10-08T03:16:54;14.30;99.90
26703;DHT22;14316;51.074;3.704;2023-10-08T03:19:32;14.30;99.90
26703;DHT22;14316;51.074;3.704;2023-10-08T03:21:58;14.20;99.90
26703;DHT22;14316;51.074;3.704;2023-10-08T03:24:29;14.20;99.90
26703;DHT22;14316;51.074;3.704;2023-10-08T03:26:59;14.20;99.90
26703;DHT22;14316;51.074;3.704;2023-10-08T03:29:54;14.20;99.90
26703;DHT22;14316;51.074;3.704;2023-10-08T03:32:21;14.10;99.90
26703;DHT22;14316;51.074;3.704;2023-10-08T03:34:52;14.20;99.90
26703;DHT22;14316;51.074;3.704;2023-10-08T03:37:22;14.10;99.90
26703;DHT22;14316;51.074;3.704;2023-10-08T03:39:55;14.20;99.90
26703;DHT22;14316;51.074;3.704;2023-10-08T03:42:47;14.10;99.90
26703;DHT22;14316;51.074;3.704;2023-10-08T03:45:15;14.10;99.90
26703;DHT22;14316;51.074;3.704;2023-10-08T03:47:48;14.10;99.90
26703;DHT22;14316;51.074;3.704;2023-10-08T03:50:29;14.10;99.90
26703;DHT22;14316;51.074;3.704;2023-10-08T03:53:09;14.10;99.90
26703;DHT22;14316;51.074;3.704;2023-10-08T03:55:39;14.10;99.90
26703;DHT22;14316;51.074;3.704;2023-10-08T03:58:09;14.10;99.90
26703;DHT22;14316;51.074;3.704;2023-10-08T04:00:53;14.10;99.90
26703;DHT22;14316;51.074;3.704;2023-10-08T04:03:34;14.10;99.90
26703;DHT22;14316;51.074;3.704;2023-10-08T04:06:22;14.00;99.90
26703;DHT22;14316;51.074;3.704;2023-10-08T04:08:55;14.10;99.90
26703;DHT22;14316;51.074;3.704;2023-10-08T04:11:36;14.10;99.90
26703;DHT22;14316;51.074;3.704;2023-10-08T04:14:24;14.10;99.90
26703;DHT22;14316;51.074;3.704;2023-10-08T04:16:51;14.10;99.90
26703;DHT22;14316;51.074;3.704;2023-10-08T04:19:21;14.20;99.90
26703;DHT22;14316;51.074;3.704;2023-10-08T04:21:53;14.10;99.90
26703;DHT22;14316;51.074;3.704;2023-10-08T04:24:26;14.10;99.90
26703;DHT22;14316;51.074;3.704;2023-10-08T04:27:01;14.20;99.90
26703;DHT22;14316;51.074;3.704;2023-10-08T04:29:33;14.20;99.90
26703;DHT22;14316;51.074;3.704;2023-10-08T04:32:02;14.30;99.90
26703;DHT22;14316;51.074;3.704;2023-10-08T04:34:36;14.20;99.90
26703;DHT22;14316;51.074;3.704;2023-10-08T04:37:02;14.20;99.90
26703;DHT22;14316;51.074;3.704;2023-10-08T04:39:39;14.20;99.90
26703;DHT22;14316;51.074;3.704;2023-10-08T04:42:06;14.10;99.90
26703;DHT22;14316;51.074;3.704;2023-10-08T04:44:51;14.10;99.90
26703;DHT22;14316;51.074;3.704;2023-10-08T04:47:18;14.10;99.90
26703;DHT22;14316;51.074;3.704;2023-10-08T04:49:59;14.10;99.90
26703;DHT22;14316;51.074;3.704;2023-10-08T04:52:26;14.10;99.90
26703;DHT22;14316;51.074;3.704;2023-10-08T04:54:53;14.10;99.90
26703;DHT22;14316;51.074;3.704;2023-10-08T04:57:20;14.10;99.90
26703;DHT22;14316;51.074;3.704;2023-10-08T04:59:51;14.10;99.90
26703;DHT22;14316;51.074;3.704;2023-10-08T05:02:18;14.10;99.90
26703;DHT22;14316;51.074;3.704;2023-10-08T05:04:50;14.10;99.90
26703;DHT22;14316;51.074;3.704;2023-10-08T05:07:35;14.10;99.90
26703;DHT22;14316;51.074;3.704;2023-10-08T05:10:14;14.20;99.90
26703;DHT22;14316;51.074;3.704;2023-10-08T05:12:52;14.20;99.90
26703;DHT22;14316;51.074;3.704;2023-10-08T05:15:27;14.30;99.90
26703;DHT22;14316;51.074;3.704;2023-10-08T05:18:02;14.30;99.90
26703;DHT22;14316;51.074;3.704;2023-10-08T05:20:43;14.30;99.90
26703;DHT22;14316;51.074;3.704;2023-10-08T05:23:16;14.30;99.90
26703;DHT22;14316;51.074;3.704;2023-10-08T05:25:52;14.30;99.90
26703;DHT22;14316;51.074;3.704;2023-10-08T05:28:27;14.30;99.90
26703;DHT22;14316;51.074;3.704;2023-10-08T05:30:55;14.30;99.90
26703;DHT22;14316;51.074;3.704;2023-10-08T05:33:39;14.20;99.90
26703;DHT22;14316;51.074;3.704;2023-10-08T05:36:24;14.20;99.90
26703;DHT22;14316;51.074;3.704;2023-10-08T05:39:16;14.20;99.90
26703;DHT22;14316;51.074;3.704;2023-10-08T05:42:09;14.20;99.90
26703;DHT22;14316;51.074;3.704;2023-10-08T05:44:40;14.10;99.90
26703;DHT22;14316;51.074;3.704;2023-10-08T05:47:14;14.20;99.90
26703;DHT22;14316;51.074;3.704;2023-10-08T05:50:09;14.20;99.90
26703;DHT22;14316;51.074;3.704;2023-10-08T05:55:30;14.20;99.90
26703;DHT22;14316;51.074;3.704;2023-10-08T05:58:04;14.20;99.90
26703;DHT22;14316;51.074;3.704;2023-10-08T06:00:43;14.30;99.90
26703;DHT22;14316;51.074;3.704;2023-10-08T06:03:30;14.40;99.90
26703;DHT22;14316;51.074;3.704;2023-10-08T06:06:02;14.60;99.90
26703;DHT22;14316;51.074;3.704;2023-10-08T06:08:48;14.60;99.90
26703;DHT22;14316;51.074;3.704;2023-10-08T06:11:36;14.80;99.90
26703;DHT22;14316;51.074;3.704;2023-10-08T06:14:33;14.90;99.90
26703;DHT22;14316;51.074;3.704;2023-10-08T06:17:20;15.10;99.90
26703;DHT22;14316;51.074;3.704;2023-10-08T06:20:05;15.10;99.90
26703;DHT22;14316;51.074;3.704;2023-10-08T06:22:36;15.00;99.90
26703;DHT22;14316;51.074;3.704;2023-10-08T06:25:02;15.10;99.90
26703;DHT22;14316;51.074;3.704;2023-10-08T06:27:51;15.10;99.90
26703;DHT22;14316;51.074;3.704;2023-10-08T06:30:23;15.10;99.90
26703;DHT22;14316;51.074;3.704;2023-10-08T06:32:50;15.10;99.90
26703;DHT22;14316;51.074;3.704;2023-10-08T06:35:16;15.00;99.90
26703;DHT22;14316;51.074;3.704;2023-10-08T06:37:52;15.10;99.90
26703;DHT22;14316;51.074;3.704;2023-10-08T06:40:22;15.10;99.90
26703;DHT22;14316;51.074;3.704;2023-10-08T06:43:05;15.10;99.90
26703;DHT22;14316;51.074;3.704;2023-10-08T06:45:45;15.40;99.90
26703;DHT22;14316;51.074;3.704;2023-10-08T06:48:13;15.40;99.90
26703;DHT22;14316;51.074;3.704;2023-10-08T06:50:51;15.40;99.90
26703;DHT22;14316;51.074;3.704;2023-10-08T06:53:22;15.50;99.90
26703;DHT22;14316;51.074;3.704;2023-10-08T06:55:48;15.70;99.90
26703;DHT22;14316;51.074;3.704;2023-10-08T06:58:20;15.50;99.90
26703;DHT22;14316;51.074;3.704;2023-10-08T07:00:45;15.40;99.90
26703;DHT22;14316;51.074;3.704;2023-10-08T07:03:15;15.30;99.90
26703;DHT22;14316;51.074;3.704;2023-10-08T07:05:47;15.30;99.90
26703;DHT22;14316;51.074;3.704;2023-10-08T07:08:32;15.40;99.90
26703;DHT22;14316;51.074;3.704;2023-10-08T07:11:00;15.40;99.90
26703;DHT22;14316;51.074;3.704;2023-10-08T07:13:29;15.40;99.90
26703;DHT22;14316;51.074;3.704;2023-10-08T07:15:56;15.70;99.90
26703;DHT22;14316;51.074;3.704;2023-10-08T07:18:22;15.80;99.90
26703;DHT22;14316;51.074;3.704;2023-10-08T07:20:51;15.80;99.90
26703;DHT22;14316;51.074;3.704;2023-10-08T07:23:22;15.70;99.90
26703;DHT22;14316;51.074;3.704;2023-10-08T07:25:56;15.70;99.90
26703;DHT22;14316;51.074;3.704;2023-10-08T07:28:45;15.70;99.90
26703;DHT22;14316;51.074;3.704;2023-10-08T07:31:23;15.70;99.90
26703;DHT22;14316;51.074;3.704;2023-10-08T07:33:53;15.70;99.90
26703;DHT22;14316;51.074;3.704;2023-10-08T07:36:23;15.80;99.90
26703;DHT22;14316;51.074;3.704;2023-10-08T07:38:50;16.00;99.90
26703;DHT22;14316;51.074;3.704;2023-10-08T07:41:18;16.10;99.90
26703;DHT22;14316;51.074;3.704;2023-10-08T07:43:55;16.10;99.90
26703;DHT22;14316;51.074;3.704;2023-10-08T07:46:27;16.00;99.90
26703;DHT22;14316;51.074;3.704;2023-10-08T07:48:53;16.00;99.90
26703;DHT22;14316;51.074;3.704;2023-10-08T07:51:20;16.00;99.90
26703;DHT22;14316;51.074;3.704;2023-10-08T07:53:50;16.10;99.90
26703;DHT22;14316;51.074;3.704;2023-10-08T07:56:20;16.20;99.90
26703;DHT22;14316;51.074;3.704;2023-10-08T07:58:46;16.30;99.90
26703;DHT22;14316;51.074;3.704;2023-10-08T08:01:13;16.40;99.90
26703;DHT22;14316;51.074;3.704;2023-10-08T08:03:40;16.50;99.90
26703;DHT22;14316;51.074;3.704;2023-10-08T08:06:11;16.50;99.90
26703;DHT22;14316;51.074;3.704;2023-10-08T08:08:39;16.70;99.90
26703;DHT22;14316;51.074;3.704;2023-10-08T08:11:06;16.80;99.90
26703;DHT22;14316;51.074;3.704;2023-10-08T08:13:38;17.00;99.90
26703;DHT22;14316;51.074;3.704;2023-10-08T08:16:05;17.20;99.90
26703;DHT22;14316;51.074;3.704;2023-10-08T08:18:53;17.30;99.90
26703;DHT22;14316;51.074;3.704;2023-10-08T08:21:22;17.50;99.90
26703;DHT22;14316;51.074;3.704;2023-10-08T08:23:49;17.60;99.90
26703;DHT22;14316;51.074;3.704;2023-10-08T08:26:23;18.00;99.90
26703;DHT22;14316;51.074;3.704;2023-10-08T08:28:54;18.10;99.90
26703;DHT22;14316;51.074;3.704;2023-10-08T08:31:20;18.10;99.90
26703;DHT22;14316;51.074;3.704;2023-10-08T08:33:46;18.20;99.90
26703;DHT22;14316;51.074;3.704;2023-10-08T08:36:19;18.30;99.90
26703;DHT22;14316;51.074;3.704;2023-10-08T08:38:45;18.40;99.90
26703;DHT22;14316;51.074;3.704;2023-10-08T08:41:11;18.50;99.90
26703;DHT22;14316;51.074;3.704;2023-10-08T08:43:38;18.70;99.90
26703;DHT22;14316;51.074;3.704;2023-10-08T08:46:10;18.80;99.90
26703;DHT22;14316;51.074;3.704;2023-10-08T08:48:40;18.80;99.90
26703;DHT22;14316;51.074;3.704;2023-10-08T08:51:06;19.00;99.90
26703;DHT22;14316;51.074;3.704;2023-10-08T08:53:41;19.10;99.90
26703;DHT22;14316;51.074;3.704;2023-10-08T08:56:08;19.30;99.90
26703;DHT22;14316;51.074;3.704;2023-10-08T08:58:38;19.50;99.90
26703;DHT22;14316;51.074;3.704;2023-10-08T09:01:07;19.80;99.90
26703;DHT22;14316;51.074;3.704;2023-10-08T09:03:35;20.00;99.90
26703;DHT22;14316;51.074;3.704;2023-10-08T09:06:02;20.20;99.90
26703;DHT22;14316;51.074;3.704;2023-10-08T09:08:38;20.10;99.90
26703;DHT22;14316;51.074;3.704;2023-10-08T09:11:08;20.00;99.90
26703;DHT22;14316;51.074;3.704;2023-10-08T09:13:34;19.90;99.90
26703;DHT22;14316;51.074;3.704;2023-10-08T09:16:11;19.90;99.90
26703;DHT22;14316;51.074;3.704;2023-10-08T09:18:41;19.80;99.90
26703;DHT22;14316;51.074;3.704;2023-10-08T09:21:11;20.00;99.90
26703;DHT22;14316;51.074;3.704;2023-10-08T09:23:43;20.10;99.90
26703;DHT22;14316;51.074;3.704;2023-10-08T09:26:10;20.40;99.90
26703;DHT22;14316;51.074;3.704;2023-10-08T09:28:37;20.60;99.90
26703;DHT22;14316;51.074;3.704;2023-10-08T09:31:10;20.70;99.90
26703;DHT22;14316;51.074;3.704;2023-10-08T09:33:37;20.80;99.90
26703;DHT22;14316;51.074;3.704;2023-10-08T09:36:05;21.10;99.90
26703;DHT22;14316;51.074;3.704;2023-10-08T09:38:38;21.40;99.90
26703;DHT22;14316;51.074;3.704;2023-10-08T09:41:04;21.70;99.90
26703;DHT22;14316;51.074;3.704;2023-10-08T09:43:32;21.80;99.90
26703;DHT22;14316;51.074;3.704;2023-10-08T09:46:18;21.80;99.90
26703;DHT22;14316;51.074;3.704;2023-10-08T09:48:51;22.00;99.90
26703;DHT22;14316;51.074;3.704;2023-10-08T09:51:20;22.20;99.90
26703;DHT22;14316;51.074;3.704;2023-10-08T09:54:00;22.40;99.90
26703;DHT22;14316;51.074;3.704;2023-10-08T09:56:31;22.50;99.90
26703;DHT22;14316;51.074;3.704;2023-10-08T09:58:58;22.50;99.90
26703;DHT22;14316;51.074;3.704;2023-10-08T10:01:25;22.60;99.90
26703;DHT22;14316;51.074;3.704;2023-10-08T10:03:52;22.80;99.90
26703;DHT22;14316;51.074;3.704;2023-10-08T10:06:18;22.90;99.90
26703;DHT22;14316;51.074;3.704;2023-10-08T10:08:45;23.10;99.90
26703;DHT22;14316;51.074;3.704;2023-10-08T10:11:13;23.40;99.90
26703;DHT22;14316;51.074;3.704;2023-10-08T10:13:50;23.40;99.90
26703;DHT22;14316;51.074;3.704;2023-10-08T10:16:18;23.40;99.90
26703;DHT22;14316;51.074;3.704;2023-10-08T10:18:45;23.50;99.90
26703;DHT22;14316;51.074;3.704;2023-10-08T10:23:48;23.90;99.90
26703;DHT22;14316;51.074;3.704;2023-10-08T10:26:24;24.10;99.90
26703;DHT22;14316;51.074;3.704;2023-10-08T10:31:40;24.40;99.90
26703;DHT22;14316;51.074;3.704;2023-10-08T10:34:11;24.50;99.90
26703;DHT22;14316;51.074;3.704;2023-10-08T10:36:42;25.00;99.90
26703;DHT22;14316;51.074;3.704;2023-10-08T10:39:09;25.60;99.90
26703;DHT22;14316;51.074;3.704;2023-10-08T10:41:46;26.20;99.90
26703;DHT22;14316;51.074;3.704;2023-10-08T10:44:15;27.00;99.90
26703;DHT22;14316;51.074;3.704;2023-10-08T10:46:42;27.60;99.90
26703;DHT22;14316;51.074;3.704;2023-10-08T10:49:11;27.90;99.90
26703;DHT22;14316;51.074;3.704;2023-10-08T10:51:57;27.70;99.90
26703;DHT22;14316;51.074;3.704;2023-10-08T10:54:24;28.30;99.90
26703;DHT22;14316;51.074;3.704;2023-10-08T10:56:51;29.00;99.90
26703;DHT22;14316;51.074;3.704;2023-10-08T10:59:39;29.70;99.90
26703;DHT22;14316;51.074;3.704;2023-10-08T11:02:08;30.70;99.90
26703;DHT22;14316;51.074;3.704;2023-10-08T11:04:35;31.30;99.90
26703;DHT22;14316;51.074;3.704;2023-10-08T11:07:20;31.10;99.90
26703;DHT22;14316;51.074;3.704;2023-10-08T11:09:55;29.90;99.90
26703;DHT22;14316;51.074;3.704;2023-10-08T11:12:21;28.50;99.90
26703;DHT22;14316;51.074;3.704;2023-10-08T11:14:49;27.10;99.90
26703;DHT22;14316;51.074;3.704;2023-10-08T11:17:26;25.90;99.90
26703;DHT22;14316;51.074;3.704;2023-10-08T11:19:52;25.70;99.90
26703;DHT22;14316;51.074;3.704;2023-10-08T11:22:18;26.00;99.90
26703;DHT22;14316;51.074;3.704;2023-10-08T11:24:48;26.70;99.90
26703;DHT22;14316;51.074;3.704;2023-10-08T11:27:20;27.70;99.90
26703;DHT22;14316;51.074;3.704;2023-10-08T11:29:56;27.50;99.90
26703;DHT22;14316;51.074;3.704;2023-10-08T11:32:26;27.20;99.90
26703;DHT22;14316;51.074;3.704;2023-10-08T11:34:59;27.60;99.90
26703;DHT22;14316;51.074;3.704;2023-10-08T11:37:30;28.50;99.90
26703;DHT22;14316;51.074;3.704;2023-10-08T11:40:00;29.90;99.90
26703;DHT22;14316;51.074;3.704;2023-10-08T11:42:34;28.80;99.90
26703;DHT22;14316;51.074;3.704;2023-10-08T11:45:00;28.30;99.90
26703;DHT22;14316;51.074;3.704;2023-10-08T11:47:44;29.10;99.90
26703;DHT22;14316;51.074;3.704;2023-10-08T11:50:15;30.10;99.90
26703;DHT22;14316;51.074;3.704;2023-10-08T11:52:46;31.10;99.90
26703;DHT22;14316;51.074;3.704;2023-10-08T11:55:12;31.70;99.90
26703;DHT22;14316;51.074;3.704;2023-10-08T11:57:47;31.10;99.90
26703;DHT22;14316;51.074;3.704;2023-10-08T12:00:15;32.10;99.90
26703;DHT22;14316;51.074;3.704;2023-10-08T12:02:48;32.10;99.90
26703;DHT22;14316;51.074;3.704;2023-10-08T12:05:15;30.40;99.90
26703;DHT22;14316;51.074;3.704;2023-10-08T12:07:53;30.30;99.90
26703;DHT22;14316;51.074;3.704;2023-10-08T12:10:23;29.90;99.90
26703;DHT22;14316;51.074;3.704;2023-10-08T12:12:50;29.20;99.90
26703;DHT22;14316;51.074;3.704;2023-10-08T12:15:25;29.00;99.90
26703;DHT22;14316;51.074;3.704;2023-10-08T12:18:00;29.00;99.90
26703;DHT22;14316;51.074;3.704;2023-10-08T12:20:39;29.10;99.90
26703;DHT22;14316;51.074;3.704;2023-10-08T12:23:10;28.70;99.90
26703;DHT22;14316;51.074;3.704;2023-10-08T12:25:51;28.30;99.90
26703;DHT22;14316;51.074;3.704;2023-10-08T12:28:18;29.30;99.90
26703;DHT22;14316;51.074;3.704;2023-10-08T12:30:46;29.90;99.90
26703;DHT22;14316;51.074;3.704;2023-10-08T12:33:17;30.80;99.90
26703;DHT22;14316;51.074;3.704;2023-10-08T12:35:45;31.90;99.90
26703;DHT22;14316;51.074;3.704;2023-10-08T12:38:13;32.30;99.90
26703;DHT22;14316;51.074;3.704;2023-10-08T12:40:40;32.00;99.90
26703;DHT22;14316;51.074;3.704;2023-10-08T12:43:23;32.40;99.90
26703;DHT22;14316;51.074;3.704;2023-10-08T12:45:53;32.50;99.40
26703;DHT22;14316;51.074;3.704;2023-10-08T12:48:23;31.50;98.20
26703;DHT22;14316;51.074;3.704;2023-10-08T12:50:50;30.50;99.60
26703;DHT22;14316;51.074;3.704;2023-10-08T12:53:29;31.30;99.50
26703;DHT22;14316;51.074;3.704;2023-10-08T12:56:08;31.80;98.30
26703;DHT22;14316;51.074;3.704;2023-10-08T12:58:41;30.90;97.40
26703;DHT22;14316;51.074;3.704;2023-10-08T13:01:10;30.10;98.00
26703;DHT22;14316;51.074;3.704;2023-10-08T13:03:42;30.50;98.70
26703;DHT22;14316;51.074;3.704;2023-10-08T13:06:11;30.00;98.60
26703;DHT22;14316;51.074;3.704;2023-10-08T13:08:40;29.90;99.80
26703;DHT22;14316;51.074;3.704;2023-10-08T13:11:08;30.60;99.20
26703;DHT22;14316;51.074;3.704;2023-10-08T13:13:37;31.20;98.60
26703;DHT22;14316;51.074;3.704;2023-10-08T13:16:03;30.30;98.70
26703;DHT22;14316;51.074;3.704;2023-10-08T13:18:33;30.00;99.20
26703;DHT22;14316;51.074;3.704;2023-10-08T13:20:59;30.50;99.60
26703;DHT22;14316;51.074;3.704;2023-10-08T13:23:26;31.20;98.80
26703;DHT22;14316;51.074;3.704;2023-10-08T13:25:55;31.00;98.50
26703;DHT22;14316;51.074;3.704;2023-10-08T13:28:21;30.50;98.10
26703;DHT22;14316;51.074;3.704;2023-10-08T13:30:49;30.50;98.00
26703;DHT22;14316;51.074;3.704;2023-10-08T13:33:19;31.20;98.00
26703;DHT22;14316;51.074;3.704;2023-10-08T13:35:48;31.10;97.40
26703;DHT22;14316;51.074;3.704;2023-10-08T13:38:18;31.60;96.40
26703;DHT22;14316;51.074;3.704;2023-10-08T13:40:51;31.90;95.70
26703;DHT22;14316;51.074;3.704;2023-10-08T13:43:32;32.10;96.10
26703;DHT22;14316;51.074;3.704;2023-10-08T13:46:02;31.80;96.10
26703;DHT22;14316;51.074;3.704;2023-10-08T13:48:33;31.10;96.40
26703;DHT22;14316;51.074;3.704;2023-10-08T13:51:03;31.00;96.90
26703;DHT22;14316;51.074;3.704;2023-10-08T13:53:32;31.40;96.20
26703;DHT22;14316;51.074;3.704;2023-10-08T13:55:59;30.80;95.90
26703;DHT22;14316;51.074;3.704;2023-10-08T13:58:30;30.80;96.00
26703;DHT22;14316;51.074;3.704;2023-10-08T14:01:01;31.40;95.80
26703;DHT22;14316;51.074;3.704;2023-10-08T14:03:30;31.80;95.20
26703;DHT22;14316;51.074;3.704;2023-10-08T14:06:03;32.00;95.10
26703;DHT22;14316;51.074;3.704;2023-10-08T14:08:35;32.10;95.00
26703;DHT22;14316;51.074;3.704;2023-10-08T14:11:02;32.10;94.30
26703;DHT22;14316;51.074;3.704;2023-10-08T14:13:31;32.40;94.00
26703;DHT22;14316;51.074;3.704;2023-10-08T14:16:02;31.60;94.90
26703;DHT22;14316;51.074;3.704;2023-10-08T14:18:34;31.10;94.60
26703;DHT22;14316;51.074;3.704;2023-10-08T14:21:09;30.50;95.60
26703;DHT22;14316;51.074;3.704;2023-10-08T14:23:40;30.60;95.80
26703;DHT22;14316;51.074;3.704;2023-10-08T14:26:09;30.60;95.30
26703;DHT22;14316;51.074;3.704;2023-10-08T14:28:36;30.70;95.60
26703;DHT22;14316;51.074;3.704;2023-10-08T14:31:17;31.00;95.40
26703;DHT22;14316;51.074;3.704;2023-10-08T14:33:44;31.10;95.70
26703;DHT22;14316;51.074;3.704;2023-10-08T14:36:24;31.60;95.00
26703;DHT22;14316;51.074;3.704;2023-10-08T14:39:09;31.50;94.70
26703;DHT22;14316;51.074;3.704;2023-10-08T14:41:54;31.60;94.80
26703;DHT22;14316;51.074;3.704;2023-10-08T14:44:38;32.20;94.30
26703;DHT22;14316;51.074;3.704;2023-10-08T14:47:05;31.90;94.30
26703;DHT22;14316;51.074;3.704;2023-10-08T14:49:31;32.30;94.30
26703;DHT22;14316;51.074;3.704;2023-10-08T14:51:59;32.50;93.80
26703;DHT22;14316;51.074;3.704;2023-10-08T14:54:25;31.50;94.20
26703;DHT22;14316;51.074;3.704;2023-10-08T14:56:51;31.10;94.70
26703;DHT22;14316;51.074;3.704;2023-10-08T14:59:18;30.50;95.10
26703;DHT22;14316;51.074;3.704;2023-10-08T15:01:44;30.40;95.80
26703;DHT22;14316;51.074;3.704;2023-10-08T15:04:13;30.00;95.60
26703;DHT22;14316;51.074;3.704;2023-10-08T15:06:39;29.80;96.10
26703;DHT22;14316;51.074;3.704;2023-10-08T15:09:05;29.70;96.30
26703;DHT22;14316;51.074;3.704;2023-10-08T15:11:33;30.20;95.80
26703;DHT22;14316;51.074;3.704;2023-10-08T15:14:02;29.90;96.40
26703;DHT22;14316;51.074;3.704;2023-10-08T15:16:37;30.00;96.60
26703;DHT22;14316;51.074;3.704;2023-10-08T15:19:04;29.50;95.50
26703;DHT22;14316;51.074;3.704;2023-10-08T15:21:31;29.50;95.90
26703;DHT22;14316;51.074;3.704;2023-10-08T15:24:00;29.60;96.10
26703;DHT22;14316;51.074;3.704;2023-10-08T15:26:32;30.00;95.70
26703;DHT22;14316;51.074;3.704;2023-10-08T15:28:58;30.10;95.30
26703;DHT22;14316;51.074;3.704;2023-10-08T15:31:24;29.70;95.60
26703;DHT22;14316;51.074;3.704;2023-10-08T15:33:50;29.40;96.00
26703;DHT22;14316;51.074;3.704;2023-10-08T15:36:16;29.10;96.10
26703;DHT22;14316;51.074;3.704;2023-10-08T15:38:42;29.00;96.40
26703;DHT22;14316;51.074;3.704;2023-10-08T15:41:09;28.90;96.70
26703;DHT22;14316;51.074;3.704;2023-10-08T15:43:35;29.00;96.80
26703;DHT22;14316;51.074;3.704;2023-10-08T15:46:01;28.90;97.30
26703;DHT22;14316;51.074;3.704;2023-10-08T15:48:27;29.00;96.80
26703;DHT22;14316;51.074;3.704;2023-10-08T15:50:54;29.00;97.00
26703;DHT22;14316;51.074;3.704;2023-10-08T15:53:20;29.20;96.50
26703;DHT22;14316;51.074;3.704;2023-10-08T15:55:46;29.20;96.60
26703;DHT22;14316;51.074;3.704;2023-10-08T15:58:12;29.10;96.70
26703;DHT22;14316;51.074;3.704;2023-10-08T16:00:38;28.80;96.70
26703;DHT22;14316;51.074;3.704;2023-10-08T16:03:04;28.30;97.80
26703;DHT22;14316;51.074;3.704;2023-10-08T16:05:34;27.90;98.20